Terminal Aerodrome Forecast
Issued by NWS Blacksburg, VA

Home | Current Version | Previous Version | Text Only | Print | Product List | Glossary On
Versions: 1 2 3 4 5 6 7 8 9 10 11 12 13 14 15 16 17 18 19 20 21 22 23 24 25 26 27 28 29 30 31 32 33 34 35 36 37 38 39 40 41 42
000
FTUS41 KRNK 270754 AAA
TAFBLF
TAF AMD
KBLF 270754Z 2708/2806 00000KT 4SM BR FEW040 BKN060 OVC070
      TEMPO 2708/2710 1/2SM SN FG
     FM271000 31008KT 2SM -SN BR OVC012
     FM271800 31012G19KT 5SM BR OVC030
     FM280100 30011KT P6SM OVC050=

USA.gov is the U.S. government's official web portal to all federal, state and local government web resources and services.